createdAt,value
2018-05-23T00:00:15.101Z,12.77
2018-05-23T00:02:42.349Z,11.97
2018-05-23T00:05:09.404Z,11.80
2018-05-23T00:07:36.447Z,12.13
2018-05-23T00:10:04.013Z,11.57
2018-05-23T00:12:31.006Z,11.17
2018-05-23T00:14:58.007Z,11.13
2018-05-23T00:17:25.870Z,13.43
2018-05-23T00:19:52.923Z,13.20
2018-05-23T00:22:20.889Z,12.10
2018-05-23T00:24:47.887Z,12.00
2018-05-23T00:27:14.884Z,11.53
2018-05-23T00:29:43.062Z,12.20
2018-05-23T00:32:10.107Z,12.00
2018-05-23T00:34:37.156Z,12.53
2018-05-23T00:37:04.211Z,11.80
2018-05-23T00:39:31.252Z,11.53
2018-05-23T00:41:58.301Z,12.23
2018-05-23T00:44:25.381Z,12.63
2018-05-23T00:46:52.398Z,11.67
2018-05-23T00:49:19.447Z,11.93
2018-05-23T00:51:47.520Z,10.90
2018-05-23T00:54:14.572Z,10.87
2018-05-23T00:56:41.617Z,11.80
2018-05-23T00:59:08.670Z,12.07
2018-05-23T01:01:35.724Z,12.30
2018-05-23T01:04:02.769Z,11.90
2018-05-23T01:06:29.817Z,11.97
2018-05-23T01:08:56.866Z,11.17
2018-05-23T01:11:23.912Z,11.63
2018-05-23T01:13:51.783Z,11.20
2018-05-23T01:16:18.825Z,11.87
2018-05-23T01:18:45.873Z,11.27
2018-05-23T01:21:12.824Z,11.47
2018-05-23T01:23:40.078Z,10.50
2018-05-23T01:26:07.011Z,10.40
2018-05-23T01:28:34.787Z,9.97
2018-05-23T01:31:02.456Z,10.17
2018-05-23T01:33:29.605Z,10.10
2018-05-23T01:35:56.648Z,10.00
2018-05-23T01:38:23.650Z,9.53
2018-05-23T01:40:50.642Z,9.30
2018-05-23T01:43:17.794Z,9.30
2018-05-23T01:45:44.848Z,9.97
2018-05-23T01:48:11.896Z,9.30
2018-05-23T01:50:38.938Z,8.50
2018-05-23T01:53:05.989Z,8.33
2018-05-23T01:55:33.186Z,8.00
2018-05-23T01:58:00.225Z,8.43
2018-05-23T02:00:27.133Z,8.17
2018-05-23T02:02:54.188Z,7.63
2018-05-23T02:05:21.230Z,8.90
2018-05-23T02:07:48.280Z,8.07
2018-05-23T02:10:15.336Z,7.60
2018-05-23T02:12:42.378Z,7.93
2018-05-23T02:15:09.424Z,7.70
2018-05-23T02:17:36.985Z,7.17
2018-05-23T02:20:04.341Z,7.60
2018-05-23T02:22:32.624Z,7.43
2018-05-23T02:24:59.667Z,7.43
2018-05-23T02:27:26.665Z,7.27
2018-05-23T02:29:53.661Z,7.37
2018-05-23T02:32:20.713Z,7.27
2018-05-23T02:34:48.171Z,7.20
2018-05-23T02:37:15.223Z,7.10
2018-05-23T02:39:43.085Z,7.07
2018-05-23T02:42:10.224Z,7.23
2018-05-23T02:44:37.182Z,7.07
2018-05-23T02:47:04.242Z,6.33
2018-05-23T02:49:31.284Z,6.57
2018-05-23T02:52:00.974Z,6.50
2018-05-23T02:54:28.046Z,7.10
2018-05-23T02:56:55.089Z,6.60
2018-05-23T02:59:22.287Z,6.57
2018-05-23T03:01:49.289Z,5.97
2018-05-23T03:04:16.341Z,6.70
2018-05-23T03:06:43.385Z,6.50
2018-05-23T03:09:10.432Z,6.37
2018-05-23T03:11:37.486Z,5.87
2018-05-23T03:14:04.738Z,6.30
2018-05-23T03:16:31.789Z,5.63
2018-05-23T03:18:58.809Z,6.23
2018-05-23T03:21:25.880Z,6.10
2018-05-23T03:23:52.934Z,6.33
2018-05-23T03:26:19.979Z,6.40
2018-05-23T03:28:47.027Z,6.57
2018-05-23T03:31:14.081Z,6.60
2018-05-23T03:33:41.125Z,5.73
2018-05-23T03:36:08.788Z,6.00
2018-05-23T03:38:36.150Z,5.87
2018-05-23T03:41:03.191Z,6.03
2018-05-23T03:43:30.244Z,6.07
2018-05-23T03:45:57.293Z,6.57
2018-05-23T03:48:27.413Z,6.20
2018-05-23T03:50:54.458Z,5.97
2018-05-23T03:53:21.511Z,5.70
2018-05-23T03:55:48.556Z,6.50
2018-05-23T03:58:15.607Z,6.10
2018-05-23T04:00:48.496Z,6.17
2018-05-23T04:03:21.377Z,6.40
2018-05-23T04:05:54.311Z,6.10
2018-05-23T04:08:21.361Z,6.73
2018-05-23T04:10:48.358Z,6.70
2018-05-23T04:13:15.405Z,6.77
2018-05-23T04:15:43.171Z,6.80
2018-05-23T04:18:10.164Z,6.57
2018-05-23T04:20:38.088Z,7.00
2018-05-23T04:23:05.142Z,6.83
2018-05-23T04:25:32.189Z,6.47
2018-05-23T04:27:59.137Z,6.80
2018-05-23T04:30:26.179Z,7.00
2018-05-23T04:32:53.229Z,7.00
2018-05-23T04:35:20.282Z,6.80
2018-05-23T04:37:47.224Z,7.20
2018-05-23T04:40:14.276Z,7.00
2018-05-23T04:42:41.320Z,6.63
2018-05-23T04:45:08.374Z,7.00
2018-05-23T04:47:35.623Z,7.03
2018-05-23T04:50:02.672Z,6.73
2018-05-23T04:52:29.724Z,7.30
2018-05-23T04:54:56.769Z,6.73
2018-05-23T04:57:23.818Z,7.33
2018-05-23T04:59:50.807Z,6.97
2018-05-23T05:02:17.759Z,7.07
2018-05-23T05:04:44.716Z,6.70
2018-05-23T05:07:11.710Z,6.70
2018-05-23T05:09:38.753Z,6.60
2018-05-23T05:12:05.800Z,6.17
2018-05-23T05:14:32.856Z,6.73
2018-05-23T05:16:59.846Z,6.27
2018-05-23T05:19:28.388Z,6.20
2018-05-23T05:21:57.930Z,6.30
2018-05-23T05:24:24.936Z,6.37
2018-05-23T05:26:52.189Z,5.87
2018-05-23T05:29:19.238Z,5.63
2018-05-23T05:31:51.556Z,5.80
2018-05-23T05:34:18.763Z,5.53
2018-05-23T05:36:45.762Z,5.47
2018-05-23T05:39:13.782Z,5.20
2018-05-23T05:41:40.933Z,5.57
2018-05-23T05:44:07.991Z,5.53
2018-05-23T05:46:35.034Z,5.23
2018-05-23T05:49:02.076Z,5.20
2018-05-23T05:51:28.968Z,5.30
2018-05-23T05:53:55.970Z,5.07
2018-05-23T05:56:23.024Z,5.50
2018-05-23T05:58:50.068Z,5.60
2018-05-23T06:01:17.116Z,5.23
2018-05-23T06:03:44.171Z,5.47
2018-05-23T06:06:11.212Z,4.90
2018-05-23T06:08:38.264Z,4.90
2018-05-23T06:11:05.316Z,5.40
2018-05-23T06:13:32.362Z,4.97
2018-05-23T06:15:59.356Z,5.50
2018-05-23T06:18:27.999Z,5.37
2018-05-23T06:20:55.190Z,4.97
2018-05-23T06:23:22.192Z,5.03
2018-05-23T06:25:49.143Z,4.90
2018-05-23T06:28:17.902Z,4.67
2018-05-23T06:30:44.815Z,5.00
2018-05-23T06:33:12.130Z,5.07
2018-05-23T06:35:40.612Z,5.13
2018-05-23T06:38:07.666Z,4.90
2018-05-23T06:40:35.322Z,5.03
2018-05-23T06:43:02.984Z,4.80
2018-05-23T06:45:31.669Z,4.53
2018-05-23T06:47:58.725Z,4.43
2018-05-23T06:50:25.768Z,4.30
2018-05-23T06:52:52.820Z,4.80
2018-05-23T06:55:19.813Z,4.83
2018-05-23T06:57:46.872Z,4.80
2018-05-23T07:00:13.866Z,4.23
2018-05-23T07:02:40.913Z,4.00
2018-05-23T07:05:07.957Z,4.30
2018-05-23T07:07:35.017Z,4.40
2018-05-23T07:10:02.055Z,4.30
2018-05-23T07:12:29.204Z,4.10
2018-05-23T07:14:56.868Z,3.90
2018-05-23T07:17:23.965Z,3.60
2018-05-23T07:19:52.310Z,3.87
2018-05-23T07:22:19.348Z,3.83
2018-05-23T07:24:46.495Z,4.00
2018-05-23T07:27:14.261Z,3.47
2018-05-23T07:29:43.426Z,3.90
2018-05-23T07:32:10.612Z,3.67
2018-05-23T07:34:37.665Z,4.17
2018-05-23T07:37:04.708Z,3.90
2018-05-23T07:39:31.759Z,4.00
2018-05-23T07:41:58.750Z,3.77
2018-05-23T07:44:25.750Z,4.10
2018-05-23T07:46:54.342Z,3.70
2018-05-23T07:49:21.384Z,4.03
2018-05-23T07:51:48.434Z,4.07
2018-05-23T07:54:15.490Z,4.50
2018-05-23T07:56:42.617Z,4.30
2018-05-23T07:59:09.578Z,4.27
2018-05-23T08:01:36.570Z,4.60
2018-05-23T08:04:04.399Z,4.13
2018-05-23T08:06:31.443Z,4.07
2018-05-23T08:08:58.490Z,4.70
2018-05-23T08:11:25.745Z,4.53
2018-05-23T08:13:53.924Z,4.47
2018-05-23T08:16:20.966Z,4.50
2018-05-23T08:18:47.967Z,4.40
2018-05-23T08:21:15.075Z,4.60
2018-05-23T08:23:42.113Z,4.67
2018-05-23T08:26:09.162Z,5.10
2018-05-23T08:28:36.215Z,4.77
2018-05-23T08:31:03.264Z,5.30
2018-05-23T08:33:30.312Z,5.20
2018-05-23T08:35:57.362Z,5.43
2018-05-23T08:38:24.714Z,5.07
2018-05-23T08:40:51.760Z,5.30
2018-05-23T08:43:18.814Z,5.93
2018-05-23T08:45:46.167Z,5.97
2018-05-23T08:48:13.214Z,6.03
2018-05-23T08:50:40.267Z,5.23
2018-05-23T08:53:07.311Z,5.83
2018-05-23T08:55:34.359Z,6.03
2018-05-23T08:58:01.352Z,5.67
2018-05-23T09:00:28.660Z,5.90
2018-05-23T09:02:55.650Z,6.03
2018-05-23T09:05:22.603Z,6.07
2018-05-23T09:07:49.603Z,5.63
2018-05-23T09:10:16.655Z,5.50
2018-05-23T09:12:43.705Z,6.10
2018-05-23T09:15:10.749Z,6.13
2018-05-23T09:17:37.795Z,5.40
2018-05-23T09:20:04.849Z,5.37
2018-05-23T09:22:32.615Z,4.57
2018-05-23T09:24:59.659Z,4.40
2018-05-23T09:27:26.963Z,5.10
2018-05-23T09:30:04.577Z,4.80
2018-05-23T09:32:31.527Z,4.80
2018-05-23T09:34:58.570Z,4.53
2018-05-23T09:37:25.620Z,4.77
2018-05-23T09:39:52.569Z,4.60
2018-05-23T09:42:19.871Z,4.70
2018-05-23T09:44:47.130Z,4.93
2018-05-23T09:47:14.127Z,4.93
2018-05-23T09:49:41.168Z,4.80
2018-05-23T09:52:08.187Z,4.93
2018-05-23T09:54:35.235Z,4.87
2018-05-23T09:57:02.279Z,4.97
2018-05-23T09:59:29.332Z,5.20
2018-05-23T10:01:56.276Z,4.70
2018-05-23T10:04:24.096Z,5.30
2018-05-23T10:06:53.606Z,5.37
2018-05-23T10:09:20.594Z,5.25
2018-05-23T10:11:47.545Z,5.25
2018-05-23T10:14:14.588Z,4.72
2018-05-23T10:16:41.540Z,5.32
2018-05-23T10:19:08.583Z,5.32
2018-05-23T10:21:36.762Z,5.15
2018-05-23T10:24:04.220Z,5.22
2018-05-23T10:26:31.576Z,5.60
2018-05-23T10:28:59.848Z,5.72
2018-05-23T10:31:26.910Z,5.45
2018-05-23T10:33:53.946Z,5.40
2018-05-23T10:36:20.998Z,5.90
2018-05-23T10:38:48.048Z,5.47
2018-05-23T10:41:15.093Z,5.62
2018-05-23T10:43:42.142Z,5.60
2018-05-23T10:46:09.340Z,5.93
2018-05-23T10:48:36.349Z,5.90
2018-05-23T10:51:03.389Z,6.57
2018-05-23T10:53:30.745Z,6.20
2018-05-23T10:55:57.798Z,6.25
2018-05-23T10:58:24.842Z,6.07
2018-05-23T11:00:53.120Z,6.45
2018-05-23T11:03:20.175Z,6.37
2018-05-23T11:05:47.353Z,6.32
2018-05-23T11:08:14.327Z,6.47
2018-05-23T11:10:41.320Z,6.12
2018-05-23T11:13:08.362Z,6.20
2018-05-23T11:15:35.413Z,6.72
2018-05-23T11:18:02.465Z,6.45
2018-05-23T11:20:29.532Z,6.55
2018-05-23T11:22:56.557Z,6.85
2018-05-23T11:25:23.613Z,6.72
2018-05-23T11:27:50.654Z,6.47
2018-05-23T11:30:17.605Z,6.45
2018-05-23T11:32:44.648Z,7.03
2018-05-23T11:35:12.618Z,7.10
2018-05-23T11:37:39.672Z,6.32
2018-05-23T11:40:06.981Z,6.60
2018-05-23T11:42:33.973Z,7.37
2018-05-23T11:45:02.829Z,7.32
2018-05-23T11:47:30.011Z,7.15
2018-05-23T11:49:57.061Z,6.85
2018-05-23T11:52:24.116Z,8.10
2018-05-23T11:54:52.494Z,7.30
2018-05-23T11:57:19.540Z,7.60
2018-05-23T11:59:46.546Z,8.18
2018-05-23T12:02:14.351Z,8.07
2018-05-23T12:04:41.605Z,7.62
2018-05-23T12:07:09.883Z,8.02
2018-05-23T12:09:36.937Z,7.07
2018-05-23T12:12:03.981Z,7.62
2018-05-23T12:14:31.028Z,7.45
2018-05-23T12:16:58.181Z,8.20
2018-05-23T12:19:25.233Z,8.52
2018-05-23T12:21:54.429Z,7.70
2018-05-23T12:24:21.427Z,7.55
2018-05-23T12:26:49.093Z,8.18
2018-05-23T12:29:16.137Z,6.85
2018-05-23T12:31:43.186Z,7.57
2018-05-23T12:34:11.466Z,8.02
2018-05-23T12:36:39.232Z,6.62
2018-05-23T12:39:06.275Z,5.78
2018-05-23T12:41:33.424Z,6.03
2018-05-23T12:44:17.867Z,5.97
2018-05-23T12:46:49.085Z,6.97
2018-05-23T12:49:16.383Z,7.22
2018-05-23T12:51:43.449Z,7.00
2018-05-23T12:54:10.485Z,8.00
2018-05-23T12:56:38.654Z,8.23
2018-05-23T12:59:05.806Z,8.45
2018-05-23T13:01:33.876Z,7.57
2018-05-23T13:04:00.941Z,6.35
2018-05-23T13:06:27.976Z,6.97
2018-05-23T13:08:55.741Z,7.32
2018-05-23T13:11:22.791Z,7.32
2018-05-23T13:13:49.846Z,7.15
2018-05-23T13:16:16.885Z,7.47
2018-05-23T13:18:44.241Z,6.45
2018-05-23T13:21:11.296Z,7.28
2018-05-23T13:23:38.340Z,6.72
2018-05-23T13:26:05.291Z,7.30
2018-05-23T13:28:32.333Z,7.35
2018-05-23T13:30:59.383Z,6.95
2018-05-23T13:33:26.438Z,8.10
2018-05-23T13:35:53.480Z,7.32
2018-05-23T13:38:20.529Z,7.43
2018-05-23T13:40:47.584Z,6.97
2018-05-23T13:43:14.626Z,8.02
2018-05-23T13:45:41.778Z,7.93
2018-05-23T13:48:08.824Z,7.97
2018-05-23T13:50:35.878Z,7.47
2018-05-23T13:53:02.922Z,7.82
2018-05-23T13:55:29.971Z,7.68
2018-05-23T13:57:57.025Z,8.65
2018-05-23T14:00:24.068Z,8.75
2018-05-23T14:02:51.115Z,8.75
2018-05-23T14:05:20.110Z,8.00
2018-05-23T14:07:48.130Z,8.00
2018-05-23T14:10:15.130Z,8.15
2018-05-23T14:12:42.179Z,8.18
2018-05-23T14:15:10.047Z,9.65
2018-05-23T14:17:37.095Z,8.93
2018-05-23T14:20:04.149Z,9.55
2018-05-23T14:22:31.606Z,8.52
2018-05-23T14:24:58.651Z,9.00
2018-05-23T14:27:25.698Z,9.10
2018-05-23T14:29:52.753Z,9.40
2018-05-23T14:32:19.796Z,8.75
2018-05-23T14:34:46.845Z,9.23
2018-05-23T14:37:14.450Z,9.27
2018-05-23T14:39:41.454Z,9.18
2018-05-23T14:42:08.508Z,8.98
2018-05-23T14:44:35.551Z,9.00
2018-05-23T14:47:02.601Z,9.55
2018-05-23T14:49:29.654Z,9.95
2018-05-23T14:51:56.902Z,9.02
2018-05-23T14:54:23.950Z,8.80
2018-05-23T14:56:51.102Z,8.65
2018-05-23T14:59:19.077Z,9.32
2018-05-23T15:01:46.119Z,8.60
2018-05-23T15:04:13.993Z,9.05
2018-05-23T15:06:41.344Z,8.75
2018-05-23T15:09:08.393Z,8.30
2018-05-23T15:11:35.446Z,7.80
2018-05-23T15:14:02.489Z,8.35
2018-05-23T15:16:30.466Z,7.22
2018-05-23T15:18:57.514Z,7.00
2018-05-23T15:21:24.557Z,8.60
2018-05-23T15:23:51.762Z,7.62
2018-05-23T15:26:18.760Z,8.05
2018-05-23T15:28:46.629Z,7.53
2018-05-23T15:31:13.736Z,7.25
2018-05-23T15:33:40.733Z,8.25
2018-05-23T15:36:07.772Z,7.22
2018-05-23T15:38:36.047Z,7.22
2018-05-23T15:41:03.100Z,7.07
2018-05-23T15:43:30.144Z,6.87
2018-05-23T15:45:57.602Z,6.15
2018-05-23T15:48:25.475Z,6.90
2018-05-23T15:50:52.462Z,7.15
2018-05-23T15:53:19.470Z,6.80
2018-05-23T15:55:47.386Z,6.70
2018-05-23T15:58:15.098Z,7.25
2018-05-23T16:00:42.152Z,6.62
2018-05-23T16:03:10.272Z,6.68
2018-05-23T16:05:38.303Z,7.07
2018-05-23T16:08:05.341Z,7.20
2018-05-23T16:10:32.391Z,7.15
2018-05-23T16:13:00.462Z,6.95
2018-05-23T16:15:27.613Z,6.47
2018-05-23T16:17:54.764Z,5.90
2018-05-23T16:20:22.632Z,6.55
2018-05-23T16:22:50.399Z,6.10
2018-05-23T16:25:24.967Z,6.65
2018-05-23T16:27:53.717Z,6.57
2018-05-23T16:30:20.759Z,6.18
2018-05-23T16:32:48.217Z,6.25
2018-05-23T16:35:15.574Z,6.93
2018-05-23T16:37:42.628Z,7.15
2018-05-23T16:40:10.490Z,6.95
2018-05-23T16:42:37.436Z,7.35
2018-05-23T16:45:04.386Z,7.28
2018-05-23T16:47:32.048Z,8.05
2018-05-23T16:49:59.402Z,6.80
2018-05-23T16:52:26.552Z,6.30
2018-05-23T16:54:53.605Z,5.93
2018-05-23T16:57:21.520Z,6.82
2018-05-23T16:59:48.833Z,6.70
2018-05-23T17:02:15.770Z,6.10
2018-05-23T17:04:43.987Z,6.68
2018-05-23T17:07:11.301Z,6.60
2018-05-23T17:09:39.374Z,7.10
2018-05-23T17:12:06.466Z,6.00
2018-05-23T17:14:34.702Z,3.62
2018-05-23T17:17:01.694Z,3.55
2018-05-23T17:19:28.695Z,3.25
2018-05-23T17:21:55.646Z,3.35
2018-05-23T17:24:22.690Z,3.50
2018-05-23T17:26:50.044Z,2.97
2018-05-23T17:29:17.098Z,2.95
2018-05-23T17:31:44.961Z,2.45
2018-05-23T17:34:12.016Z,2.53
2018-05-23T17:36:39.672Z,2.55
2018-05-23T17:39:06.871Z,2.70
2018-05-23T17:41:33.871Z,3.03
2018-05-23T17:44:01.997Z,2.75
2018-05-23T17:46:29.000Z,2.20
2018-05-23T17:48:56.092Z,2.50
2018-05-23T17:51:23.105Z,2.72
2018-05-23T17:53:50.143Z,2.45
2018-05-23T17:56:17.188Z,2.58
2018-05-23T17:58:44.237Z,2.95
2018-05-23T18:01:11.270Z,2.85
2018-05-23T18:03:38.631Z,2.62
2018-05-23T18:06:06.764Z,2.78
2018-05-23T18:08:33.746Z,2.37
2018-05-23T18:11:00.791Z,3.12
2018-05-23T18:13:27.845Z,2.40
2018-05-23T18:15:54.888Z,2.90
2018-05-23T18:18:21.937Z,2.80
2018-05-23T18:20:48.991Z,3.17
2018-05-23T18:23:16.140Z,2.90
2018-05-23T18:25:43.338Z,3.00
2018-05-23T18:28:10.545Z,3.40
2018-05-23T18:30:37.594Z,2.90
2018-05-23T18:33:04.638Z,3.22
2018-05-23T18:35:31.897Z,3.40
2018-05-23T18:37:58.941Z,3.28
2018-05-23T18:40:25.988Z,3.28
2018-05-23T18:42:53.563Z,3.20
2018-05-23T18:45:21.007Z,3.10
2018-05-23T18:47:48.163Z,3.12
2018-05-23T18:50:15.309Z,3.50
2018-05-23T18:52:42.460Z,3.22
2018-05-23T18:55:09.509Z,3.35
2018-05-23T18:57:36.563Z,3.40
2018-05-23T19:00:04.052Z,3.53
2018-05-23T19:02:34.552Z,3.40
2018-05-23T19:05:01.961Z,3.70
2018-05-23T19:07:28.952Z,3.50
2018-05-23T19:09:56.005Z,3.10
2018-05-23T19:12:23.664Z,3.60
2018-05-23T19:14:50.711Z,3.65
2018-05-23T19:17:18.168Z,3.97
2018-05-23T19:19:45.249Z,4.22
2018-05-23T19:22:12.473Z,3.83
2018-05-23T19:24:39.525Z,4.22
2018-05-23T19:27:06.567Z,4.10
2018-05-23T19:29:33.719Z,4.00
2018-05-23T19:32:02.662Z,3.67
2018-05-23T19:34:29.866Z,3.95
2018-05-23T19:36:57.221Z,3.78
2018-05-23T19:39:24.474Z,3.83
2018-05-23T19:41:51.625Z,3.87
2018-05-23T19:44:18.883Z,3.60
2018-05-23T19:46:46.437Z,3.92
2018-05-23T19:49:13.897Z,4.00
2018-05-23T19:51:43.468Z,4.50
2018-05-23T19:54:10.559Z,5.10
2018-05-23T19:56:37.811Z,4.53
2018-05-23T19:59:04.909Z,4.55
2018-05-23T20:01:31.906Z,5.32
2018-05-23T20:04:00.181Z,4.93
2018-05-23T20:06:27.236Z,5.15
2018-05-23T20:08:55.662Z,5.57
2018-05-23T20:11:22.867Z,5.45
2018-05-23T20:13:49.759Z,5.20
2018-05-23T20:16:16.859Z,6.10
2018-05-23T20:18:44.013Z,6.18
2018-05-23T20:21:11.064Z,5.80
2018-05-23T20:23:38.108Z,6.28
2018-05-23T20:26:05.366Z,6.22
2018-05-23T20:28:32.518Z,6.05
2018-05-23T20:30:59.561Z,6.47
2018-05-23T20:33:27.223Z,5.72
2018-05-23T20:35:54.277Z,5.70
2018-05-23T20:38:21.428Z,5.97
2018-05-23T20:40:48.472Z,6.32
2018-05-23T20:43:16.851Z,6.68
2018-05-23T20:45:43.899Z,6.47
2018-05-23T20:48:11.875Z,6.45
2018-05-23T20:50:38.919Z,7.32
2018-05-23T20:53:06.358Z,7.75
2018-05-23T20:55:33.331Z,7.40
2018-05-23T20:58:00.380Z,6.95
2018-05-23T21:00:27.423Z,7.18
2018-05-23T21:02:54.681Z,6.25
2018-05-23T21:05:22.984Z,6.18
2018-05-23T21:07:50.006Z,5.80
2018-05-23T21:10:17.048Z,5.55
2018-05-23T21:12:44.507Z,5.90
2018-05-23T21:15:11.559Z,5.70
2018-05-23T21:17:39.884Z,5.50
2018-05-23T21:20:06.882Z,5.53
2018-05-23T21:22:34.032Z,4.95
2018-05-23T21:25:01.082Z,4.95
2018-05-23T21:27:29.256Z,5.10
2018-05-23T21:29:56.252Z,4.57
2018-05-23T21:32:23.251Z,4.60
2018-05-23T21:34:50.300Z,4.45
2018-05-23T21:37:17.353Z,4.62
2018-05-23T21:39:44.504Z,4.15
2018-05-23T21:42:11.547Z,4.47
2018-05-23T21:44:38.668Z,3.80
2018-05-23T21:47:06.772Z,4.03
2018-05-23T21:49:33.821Z,4.20
2018-05-23T21:52:00.971Z,3.95
2018-05-23T21:54:28.946Z,3.92
2018-05-23T21:56:55.990Z,3.95
2018-05-23T21:59:23.039Z,4.00
2018-05-23T22:01:50.091Z,4.00
2018-05-23T22:04:17.139Z,3.60
2018-05-23T22:06:44.799Z,3.92
2018-05-23T22:09:11.791Z,3.72
2018-05-23T22:11:38.896Z,3.87
2018-05-23T22:14:05.945Z,4.12
2018-05-23T22:16:32.998Z,3.40
2018-05-23T22:19:00.556Z,3.42
2018-05-23T22:21:28.531Z,3.45
2018-05-23T22:23:55.574Z,3.97
2018-05-23T22:26:22.621Z,3.30
2018-05-23T22:28:49.676Z,3.20
2018-05-23T22:31:16.717Z,3.03
2018-05-23T22:33:43.768Z,3.75
2018-05-23T22:36:10.821Z,4.25
2018-05-23T22:38:37.864Z,3.70
2018-05-23T22:41:04.913Z,3.45
2018-05-23T22:43:32.474Z,4.10
2018-05-23T22:45:59.737Z,3.78
2018-05-23T22:48:26.719Z,4.30
2018-05-23T22:50:53.823Z,4.07
2018-05-23T22:53:21.897Z,3.90
2018-05-23T22:55:48.950Z,4.40
2018-05-23T22:58:15.994Z,4.20
2018-05-23T23:00:43.560Z,4.53
2018-05-23T23:03:11.684Z,4.82
2018-05-23T23:05:38.828Z,4.93
2018-05-23T23:08:06.862Z,4.72
2018-05-23T23:10:33.899Z,4.57
2018-05-23T23:13:00.948Z,4.95
2018-05-23T23:15:28.003Z,4.50
2018-05-23T23:17:55.046Z,4.90
2018-05-23T23:20:22.095Z,4.80
2018-05-23T23:22:49.148Z,4.50
2018-05-23T23:25:16.192Z,5.00
2018-05-23T23:27:43.565Z,4.80
2018-05-23T23:30:10.801Z,4.68
2018-05-23T23:32:39.384Z,5.12
2018-05-23T23:35:07.460Z,4.83
2018-05-23T23:37:34.512Z,4.90
2018-05-23T23:40:01.555Z,5.07
2018-05-23T23:42:28.604Z,5.55
2018-05-23T23:44:55.657Z,5.18
2018-05-23T23:47:22.601Z,5.20
2018-05-23T23:49:50.821Z,4.87
2018-05-23T23:52:17.828Z,5.53
2018-05-23T23:54:44.966Z,5.37
2018-05-23T23:57:12.844Z,5.18
2018-05-23T23:59:39.898Z,5.20
